createdAt,value
2022-12-23T00:00:18.989Z,67.84
2022-12-23T00:01:18.950Z,67.34
2022-12-23T00:02:19.016Z,67.12
2022-12-23T00:03:19.055Z,66.64
2022-12-23T00:04:19.015Z,66.48
2022-12-23T00:05:18.969Z,66.27
2022-12-23T00:06:18.910Z,66.16
2022-12-23T00:07:18.922Z,66.48
2022-12-23T00:08:18.903Z,66.16
2022-12-23T00:09:18.889Z,65.85
2022-12-23T00:10:18.861Z,65.80
2022-12-23T00:11:18.860Z,66.06
2022-12-23T00:12:18.949Z,66.48
2022-12-23T00:13:18.962Z,66.48
2022-12-23T00:14:21.823Z,66.80
2022-12-23T00:15:18.818Z,66.91
2022-12-23T00:16:18.865Z,67.34
2022-12-23T00:17:22.539Z,67.51
2022-12-23T00:18:18.817Z,67.67
2022-12-23T00:19:18.768Z,67.73
2022-12-23T00:20:18.788Z,68.28
2022-12-23T00:21:18.770Z,68.00
2022-12-23T00:22:18.739Z,68.00
2022-12-23T00:23:18.887Z,68.28
2022-12-23T00:24:18.715Z,68.34
2022-12-23T00:25:18.727Z,68.28
2022-12-23T00:26:18.706Z,68.51
2022-12-23T00:27:18.741Z,68.73
2022-12-23T00:28:18.715Z,68.85
2022-12-23T00:29:18.680Z,68.96
2022-12-23T00:30:18.877Z,68.96
2022-12-23T00:31:18.953Z,69.02
2022-12-23T00:32:18.700Z,69.25
2022-12-23T00:33:18.715Z,68.96
2022-12-23T00:34:20.147Z,68.90
2022-12-23T00:35:18.684Z,68.90
2022-12-23T00:36:18.830Z,68.85
2022-12-23T00:37:18.597Z,69.31
2022-12-23T00:38:18.648Z,69.54
2022-12-23T00:39:18.619Z,69.83
2022-12-23T00:40:18.878Z,69.83
2022-12-23T00:41:18.608Z,70.13
2022-12-23T00:42:18.585Z,70.07
2022-12-23T00:43:18.563Z,69.83
2022-12-23T00:44:18.572Z,69.60
2022-12-23T00:45:18.538Z,69.60
2022-12-23T00:46:18.675Z,69.77
2022-12-23T00:47:18.661Z,69.71
2022-12-23T00:48:18.554Z,69.36
2022-12-23T00:49:18.547Z,69.42
2022-12-23T00:50:18.498Z,69.48
2022-12-23T00:51:18.514Z,70.07
2022-12-23T00:52:18.584Z,70.24
2022-12-23T00:53:18.518Z,70.90
2022-12-23T00:54:18.507Z,70.36
2022-12-23T00:55:18.554Z,70.36
2022-12-23T00:56:18.399Z,70.72
2022-12-23T00:57:18.389Z,70.48
2022-12-23T00:58:18.382Z,70.18
2022-12-23T00:59:18.556Z,70.30
2022-12-23T01:00:18.579Z,70.18
2022-12-23T01:01:18.424Z,70.42
2022-12-23T01:02:18.504Z,70.42
2022-12-23T01:03:18.560Z,70.13
2022-12-23T01:04:18.363Z,70.30
2022-12-23T01:05:18.324Z,70.54
2022-12-23T01:06:18.335Z,70.18
2022-12-23T01:07:18.328Z,69.60
2022-12-23T01:08:18.278Z,69.95
2022-12-23T01:09:18.305Z,69.83
2022-12-23T01:10:18.296Z,69.95
2022-12-23T01:11:18.291Z,70.01
2022-12-23T01:12:18.253Z,69.77
2022-12-23T01:13:18.288Z,70.07
2022-12-23T01:14:18.288Z,69.89
2022-12-23T01:15:18.220Z,70.01
2022-12-23T01:16:18.288Z,69.71
2022-12-23T01:17:18.237Z,70.42
2022-12-23T01:18:18.194Z,70.54
2022-12-23T01:19:18.224Z,70.30
2022-12-23T01:20:18.363Z,70.84
2022-12-23T01:21:18.147Z,71.15
2022-12-23T01:22:18.147Z,70.96
2022-12-23T01:23:18.140Z,71.39
2022-12-23T01:24:18.186Z,71.33
2022-12-23T01:25:18.154Z,72.07
2022-12-23T01:26:18.118Z,71.51
2022-12-23T01:27:18.102Z,71.95
2022-12-23T01:28:18.083Z,71.82
2022-12-23T01:29:18.115Z,71.51
2022-12-23T01:30:18.082Z,71.45
2022-12-23T01:31:18.125Z,71.51
2022-12-23T01:32:18.114Z,71.76
2022-12-23T01:33:18.048Z,72.32
2022-12-23T01:34:18.059Z,72.51
2022-12-23T01:35:18.019Z,72.77
2022-12-23T01:36:18.116Z,72.57
2022-12-23T01:37:18.016Z,73.02
2022-12-23T01:38:18.025Z,73.21
2022-12-23T01:39:18.012Z,73.08
2022-12-23T01:40:17.981Z,72.89
2022-12-23T01:41:17.978Z,72.89
2022-12-23T01:42:17.944Z,73.41
2022-12-23T01:43:17.955Z,72.77
2022-12-23T01:44:17.954Z,72.64
2022-12-23T01:45:17.932Z,72.77
2022-12-23T01:46:17.953Z,72.13
2022-12-23T01:47:17.925Z,72.01
2022-12-23T01:48:17.958Z,71.89
2022-12-23T01:49:17.877Z,71.51
2022-12-23T01:50:17.889Z,71.27
2022-12-23T01:51:17.881Z,71.15
2022-12-23T01:52:17.875Z,70.36
2022-12-23T01:53:17.835Z,70.48
2022-12-23T01:54:18.000Z,70.60
2022-12-23T01:55:17.867Z,70.24
2022-12-23T01:56:17.823Z,69.89
2022-12-23T01:57:17.817Z,69.48
2022-12-23T01:58:17.789Z,68.85
2022-12-23T01:59:17.778Z,68.85
2022-12-23T02:00:17.815Z,68.39
2022-12-23T02:01:17.790Z,68.23
2022-12-23T02:02:18.021Z,67.67
2022-12-23T02:03:17.933Z,67.29
2022-12-23T02:04:17.743Z,67.45
2022-12-23T02:05:17.747Z,67.56
2022-12-23T02:06:17.730Z,67.29
2022-12-23T02:07:17.732Z,67.07
2022-12-23T02:08:17.691Z,66.96
2022-12-23T02:09:17.751Z,66.69
2022-12-23T02:10:17.691Z,66.59
2022-12-23T02:11:17.692Z,66.11
2022-12-23T02:12:17.657Z,66.37
2022-12-23T02:13:17.691Z,66.11
2022-12-23T02:14:17.706Z,65.80
2022-12-23T02:15:17.617Z,65.85
2022-12-23T02:16:17.695Z,65.49
2022-12-23T02:17:17.623Z,65.43
2022-12-23T02:18:17.631Z,65.02
2022-12-23T02:19:17.609Z,64.92
2022-12-23T02:20:17.585Z,64.52
2022-12-23T02:21:17.656Z,64.17
2022-12-23T02:22:17.568Z,64.22
2022-12-23T02:23:17.550Z,64.42
2022-12-23T02:24:17.636Z,64.12
2022-12-23T02:25:17.525Z,63.83
2022-12-23T02:26:17.531Z,64.12
2022-12-23T02:27:17.527Z,63.53
2022-12-23T02:28:17.800Z,63.73
2022-12-23T02:29:17.535Z,63.29
2022-12-23T02:30:17.481Z,63.88
2022-12-23T02:31:17.544Z,63.58
2022-12-23T02:32:17.484Z,63.34
2022-12-23T02:33:17.437Z,63.10
2022-12-23T02:34:17.478Z,62.77
2022-12-23T02:35:17.446Z,63.00
2022-12-23T02:36:17.423Z,62.96
2022-12-23T02:37:17.417Z,62.62
2022-12-23T02:38:17.394Z,62.67
2022-12-23T02:39:17.378Z,62.53
2022-12-23T02:40:17.410Z,62.20
2022-12-23T02:41:17.357Z,62.39
2022-12-23T02:42:17.358Z,62.29
2022-12-23T02:43:17.342Z,62.25
2022-12-23T02:44:17.370Z,62.06
2022-12-23T02:45:17.328Z,62.02
2022-12-23T02:46:17.398Z,61.60
2022-12-23T02:47:17.363Z,61.56
2022-12-23T02:48:17.300Z,61.65
2022-12-23T02:49:17.335Z,61.28
2022-12-23T02:50:17.288Z,61.33
2022-12-23T02:51:17.316Z,60.97
2022-12-23T02:52:17.292Z,61.01
2022-12-23T02:53:17.335Z,60.93
2022-12-23T02:54:17.233Z,60.70
2022-12-23T02:55:17.239Z,60.75
2022-12-23T02:56:17.241Z,60.70
2022-12-23T02:57:17.226Z,60.66
2022-12-23T02:58:17.229Z,60.84
2022-12-23T02:59:17.198Z,60.70
2022-12-23T03:00:17.170Z,60.88
2022-12-23T03:01:17.237Z,61.06
2022-12-23T03:02:17.426Z,60.79
2022-12-23T03:03:17.349Z,60.88
2022-12-23T03:04:17.136Z,60.84
2022-12-23T03:05:17.126Z,60.97
2022-12-23T03:06:17.158Z,60.79
2022-12-23T03:07:18.774Z,60.93
2022-12-23T03:08:17.121Z,60.84
2022-12-23T03:09:17.091Z,61.06
2022-12-23T03:10:17.094Z,60.53
2022-12-23T03:11:17.134Z,60.57
2022-12-23T03:12:17.119Z,60.70
2022-12-23T03:13:17.104Z,60.62
2022-12-23T03:14:17.108Z,60.48
2022-12-23T03:15:17.068Z,60.31
2022-12-23T03:16:17.136Z,60.39
2022-12-23T03:17:17.018Z,60.75
2022-12-23T03:18:17.036Z,60.57
2022-12-23T03:19:17.057Z,60.57
2022-12-23T03:20:17.013Z,60.31
2022-12-23T03:21:17.119Z,60.39
2022-12-23T03:22:16.980Z,60.93
2022-12-23T03:23:16.961Z,60.48
2022-12-23T03:24:17.264Z,60.53
2022-12-23T03:25:16.984Z,60.26
2022-12-23T03:26:16.920Z,60.44
2022-12-23T03:27:16.921Z,60.39
2022-12-23T03:28:16.916Z,60.35
2022-12-23T03:29:16.902Z,60.18
2022-12-23T03:30:16.917Z,60.09
2022-12-23T03:31:17.002Z,60.00
2022-12-23T03:32:16.881Z,59.62
2022-12-23T03:33:16.882Z,59.87
2022-12-23T03:34:16.851Z,59.70
2022-12-23T03:35:16.902Z,59.62
2022-12-23T03:36:16.830Z,59.62
2022-12-23T03:37:16.840Z,59.70
2022-12-23T03:38:16.820Z,59.36
2022-12-23T03:39:16.804Z,59.19
2022-12-23T03:40:16.787Z,59.40
2022-12-23T03:41:16.784Z,59.28
2022-12-23T03:42:16.777Z,59.11
2022-12-23T03:43:16.771Z,58.90
2022-12-23T03:44:16.782Z,58.90
2022-12-23T03:45:40.371Z,58.90
2022-12-23T03:46:16.781Z,58.73
2022-12-23T03:47:16.739Z,58.90
2022-12-23T03:48:16.721Z,58.98
2022-12-23T03:49:16.694Z,58.77
2022-12-23T03:50:16.742Z,58.85
2022-12-23T03:51:16.691Z,58.90
2022-12-23T03:52:21.110Z,58.85
2022-12-23T03:53:16.685Z,58.69
2022-12-23T03:54:16.662Z,58.81
2022-12-23T03:55:16.624Z,58.69
2022-12-23T03:56:16.634Z,58.69
2022-12-23T03:57:16.728Z,58.69
2022-12-23T03:58:16.601Z,58.65
2022-12-23T03:59:16.612Z,58.44
2022-12-23T04:00:16.625Z,58.36
2022-12-23T04:01:17.947Z,58.77
2022-12-23T04:02:16.726Z,58.48
2022-12-23T04:03:16.574Z,58.40
2022-12-23T04:04:16.613Z,58.56
2022-12-23T04:05:16.541Z,58.65
2022-12-23T04:06:16.544Z,58.65
2022-12-23T04:07:16.541Z,58.28
2022-12-23T04:08:16.541Z,58.65
2022-12-23T04:09:21.684Z,58.48
2022-12-23T04:10:16.497Z,58.20
2022-12-23T04:11:16.498Z,58.20
2022-12-23T04:12:16.461Z,58.32
2022-12-23T04:13:16.468Z,58.03
2022-12-23T04:14:16.451Z,58.11
2022-12-23T04:15:16.448Z,57.95
2022-12-23T04:16:16.495Z,58.11
2022-12-23T04:17:16.484Z,58.24
2022-12-23T04:18:16.542Z,58.03
2022-12-23T04:19:16.459Z,57.75
2022-12-23T04:20:16.388Z,58.11
2022-12-23T04:21:16.406Z,57.95
2022-12-23T04:22:16.385Z,57.91
2022-12-23T04:23:16.415Z,57.87
2022-12-23T04:24:16.369Z,57.63
2022-12-23T04:25:16.359Z,57.63
2022-12-23T04:26:16.332Z,57.39
2022-12-23T04:27:16.312Z,57.12
2022-12-23T04:28:16.303Z,57.12
2022-12-23T04:29:16.347Z,57.00
2022-12-23T04:30:16.302Z,56.92
2022-12-23T04:31:16.364Z,57.04
2022-12-23T04:32:16.301Z,57.00
2022-12-23T04:33:16.271Z,56.76
2022-12-23T04:34:16.267Z,56.80
2022-12-23T04:35:16.237Z,56.73
2022-12-23T04:36:16.280Z,56.57
2022-12-23T04:37:16.240Z,56.69
2022-12-23T04:38:16.215Z,56.46
2022-12-23T04:39:16.190Z,56.42
2022-12-23T04:40:16.188Z,56.08
2022-12-23T04:41:16.199Z,56.04
2022-12-23T04:42:16.165Z,55.96
2022-12-23T04:43:16.255Z,55.85
2022-12-23T04:44:16.151Z,55.55
2022-12-23T04:45:16.146Z,55.33
2022-12-23T04:46:16.205Z,55.37
2022-12-23T04:47:16.125Z,55.15
2022-12-23T04:48:16.168Z,55.15
2022-12-23T04:49:16.229Z,54.78
2022-12-23T04:50:16.121Z,54.57
2022-12-23T04:51:16.134Z,54.32
2022-12-23T04:52:16.067Z,54.60
2022-12-23T04:53:16.163Z,54.46
2022-12-23T04:54:16.054Z,54.42
2022-12-23T04:55:16.057Z,54.57
2022-12-23T04:56:16.136Z,54.60
2022-12-23T04:57:16.029Z,54.67
2022-12-23T04:58:16.038Z,54.53
2022-12-23T04:59:16.022Z,54.25
2022-12-23T05:00:16.000Z,54.32
2022-12-23T05:01:16.065Z,54.25
2022-12-23T05:02:16.207Z,54.10
2022-12-23T05:03:16.156Z,53.93
2022-12-23T05:04:16.000Z,53.58
2022-12-23T05:05:15.973Z,53.38
2022-12-23T05:06:15.943Z,53.20
2022-12-23T05:07:15.939Z,53.17
2022-12-23T05:08:16.072Z,53.00
2022-12-23T05:09:16.029Z,52.73
2022-12-23T05:10:15.925Z,52.87
2022-12-23T05:11:15.903Z,52.73
2022-12-23T05:12:15.868Z,52.63
2022-12-23T05:13:15.889Z,52.53
2022-12-23T05:14:15.907Z,52.53
2022-12-23T05:15:15.882Z,52.56
2022-12-23T05:16:15.902Z,52.27
2022-12-23T05:17:15.866Z,52.04
2022-12-23T05:18:15.814Z,51.84
2022-12-23T05:19:15.814Z,51.97
2022-12-23T05:20:15.795Z,51.65
2022-12-23T05:21:15.803Z,51.81
2022-12-23T05:22:15.771Z,51.81
2022-12-23T05:23:15.868Z,51.52
2022-12-23T05:24:15.791Z,51.33
2022-12-23T05:25:15.754Z,51.46
2022-12-23T05:26:15.788Z,51.30
2022-12-23T05:27:15.729Z,51.17
2022-12-23T05:28:15.718Z,50.86
2022-12-23T05:29:15.737Z,50.95
2022-12-23T05:30:15.732Z,50.74
2022-12-23T05:31:15.730Z,50.52
2022-12-23T05:32:15.721Z,50.06
2022-12-23T05:33:15.904Z,50.19
2022-12-23T05:34:15.669Z,49.85
2022-12-23T05:35:15.655Z,50.06
2022-12-23T05:36:15.673Z,50.15
2022-12-23T05:37:15.657Z,49.91
2022-12-23T05:38:15.627Z,50.00
2022-12-23T05:39:15.644Z,50.12
2022-12-23T05:40:21.607Z,50.03
2022-12-23T05:41:15.593Z,49.97
2022-12-23T05:42:15.584Z,49.91
2022-12-23T05:43:15.576Z,49.62
2022-12-23T05:44:15.564Z,49.76
2022-12-23T05:45:15.579Z,49.38
2022-12-23T05:46:17.715Z,49.38
2022-12-23T05:47:15.564Z,49.26
2022-12-23T05:48:15.530Z,49.29
2022-12-23T05:49:15.589Z,49.15
2022-12-23T05:50:15.532Z,48.74
2022-12-23T05:51:15.483Z,48.35
2022-12-23T05:52:15.574Z,48.18
2022-12-23T05:53:15.479Z,48.12
2022-12-23T05:54:15.452Z,48.26
2022-12-23T05:55:15.536Z,48.23
2022-12-23T05:56:15.428Z,47.90
2022-12-23T05:57:15.445Z,47.98
2022-12-23T05:58:15.471Z,48.26
2022-12-23T05:59:15.469Z,48.32
2022-12-23T06:00:15.401Z,48.35
2022-12-23T06:01:15.401Z,48.35
2022-12-23T06:02:15.576Z,48.23
2022-12-23T06:03:15.624Z,48.15
2022-12-23T06:04:15.429Z,48.07
2022-12-23T06:05:15.388Z,48.26
2022-12-23T06:06:15.364Z,48.23
2022-12-23T06:07:15.346Z,48.04
2022-12-23T06:08:15.337Z,48.23
2022-12-23T06:09:15.323Z,48.04
2022-12-23T06:10:15.309Z,47.74
2022-12-23T06:11:15.287Z,47.49
2022-12-23T06:12:15.296Z,47.41
2022-12-23T06:13:15.321Z,46.98
2022-12-23T06:14:15.324Z,46.90
2022-12-23T06:15:15.268Z,46.43
2022-12-23T06:16:15.306Z,45.77
2022-12-23T06:17:15.253Z,45.22
2022-12-23T06:18:15.258Z,45.12
2022-12-23T06:19:15.272Z,44.69
2022-12-23T06:20:20.300Z,44.07
2022-12-23T06:21:15.218Z,43.84
2022-12-23T06:22:15.262Z,43.98
2022-12-23T06:23:15.206Z,43.79
2022-12-23T06:24:15.168Z,43.29
2022-12-23T06:25:15.170Z,43.11
2022-12-23T06:26:15.176Z,43.25
2022-12-23T06:27:15.142Z,43.07
2022-12-23T06:28:15.169Z,42.76
2022-12-23T06:29:15.123Z,42.71
2022-12-23T06:30:15.120Z,42.41
2022-12-23T06:31:15.162Z,42.37
2022-12-23T06:32:15.247Z,42.24
2022-12-23T06:33:15.072Z,42.50
2022-12-23T06:34:15.065Z,42.80
2022-12-23T06:35:15.026Z,43.02
2022-12-23T06:36:14.988Z,42.94
2022-12-23T06:37:15.020Z,43.25
2022-12-23T06:38:15.018Z,43.29
2022-12-23T06:39:15.032Z,43.56
2022-12-23T06:40:15.013Z,43.38
2022-12-23T06:41:14.968Z,43.43
2022-12-23T06:42:14.975Z,43.65
2022-12-23T06:43:14.960Z,43.56
2022-12-23T06:44:14.919Z,43.75
2022-12-23T06:45:14.929Z,43.93
2022-12-23T06:46:14.965Z,43.84
2022-12-23T06:47:14.903Z,43.84
2022-12-23T06:48:14.897Z,43.98
2022-12-23T06:49:14.865Z,44.07
2022-12-23T06:50:14.912Z,43.98
2022-12-23T06:51:14.910Z,44.35
2022-12-23T06:52:14.827Z,44.50
2022-12-23T06:53:14.827Z,44.69
2022-12-23T06:54:14.812Z,44.64
2022-12-23T06:55:14.837Z,44.78
2022-12-23T06:56:14.816Z,44.88
2022-12-23T06:57:14.902Z,44.98
2022-12-23T06:58:14.790Z,45.17
2022-12-23T06:59:14.780Z,45.42
2022-12-23T07:00:14.766Z,45.47
2022-12-23T07:01:14.762Z,45.57
2022-12-23T07:02:14.915Z,45.87
2022-12-23T07:03:14.790Z,46.17
2022-12-23T07:04:14.717Z,46.23
2022-12-23T07:05:14.719Z,46.23
2022-12-23T07:06:14.713Z,46.28
2022-12-23T07:07:14.684Z,46.33
2022-12-23T07:08:14.690Z,46.28
2022-12-23T07:09:14.667Z,46.38
2022-12-23T07:10:14.732Z,46.43
2022-12-23T07:11:14.696Z,46.38
2022-12-23T07:12:14.646Z,46.38
2022-12-23T07:13:14.661Z,46.28
2022-12-23T07:14:14.634Z,46.17
2022-12-23T07:15:14.616Z,45.97
2022-12-23T07:16:14.758Z,45.67
2022-12-23T07:17:14.583Z,45.67
2022-12-23T07:18:14.610Z,45.32
2022-12-23T07:19:14.568Z,44.93
2022-12-23T07:20:14.561Z,45.03
2022-12-23T07:21:22.927Z,44.59
2022-12-23T07:22:14.558Z,44.64
2022-12-23T07:23:14.521Z,44.31
2022-12-23T07:24:14.509Z,44.21
2022-12-23T07:25:14.600Z,44.40
2022-12-23T07:26:14.500Z,44.35
2022-12-23T07:27:14.536Z,44.35
2022-12-23T07:28:14.476Z,44.35
2022-12-23T07:29:14.482Z,44.12
2022-12-23T07:30:14.488Z,44.17
2022-12-23T07:31:14.493Z,44.07
2022-12-23T07:32:14.453Z,44.31
2022-12-23T07:33:14.475Z,44.21
2022-12-23T07:34:14.451Z,44.17
2022-12-23T07:35:14.407Z,44.07
2022-12-23T07:36:14.418Z,43.93
2022-12-23T07:37:14.406Z,44.07
2022-12-23T07:38:14.399Z,43.93
2022-12-23T07:39:14.408Z,43.61
2022-12-23T07:40:14.519Z,43.75
2022-12-23T07:41:14.377Z,43.61
2022-12-23T07:42:43.689Z,43.65
2022-12-23T07:43:14.358Z,43.70
2022-12-23T07:44:14.363Z,43.84
2022-12-23T07:45:14.409Z,43.84
2022-12-23T07:46:14.384Z,43.89
2022-12-23T07:47:14.483Z,43.93
2022-12-23T07:48:14.268Z,43.98
2022-12-23T07:49:14.389Z,44.12
2022-12-23T07:50:14.431Z,44.03
2022-12-23T07:51:14.263Z,44.03
2022-12-23T07:52:14.252Z,43.93
2022-12-23T07:53:14.285Z,44.03
2022-12-23T07:54:14.256Z,43.84
2022-12-23T07:55:14.227Z,43.75
2022-12-23T07:56:14.192Z,43.61
2022-12-23T07:57:14.241Z,43.56
2022-12-23T07:58:14.181Z,43.52
2022-12-23T07:59:14.233Z,43.65
2022-12-23T08:00:14.227Z,43.84
2022-12-23T08:01:14.230Z,43.56
2022-12-23T08:02:14.307Z,43.38
2022-12-23T08:03:14.360Z,43.47
2022-12-23T08:04:14.181Z,43.29
2022-12-23T08:05:14.254Z,43.47
2022-12-23T08:06:14.304Z,43.29
2022-12-23T08:07:14.166Z,43.16
2022-12-23T08:08:14.079Z,43.29
2022-12-23T08:09:14.150Z,43.11
2022-12-23T08:10:14.083Z,42.94
2022-12-23T08:11:14.093Z,43.02
2022-12-23T08:12:14.051Z,42.85
2022-12-23T08:13:14.061Z,42.76
2022-12-23T08:14:14.028Z,42.67
2022-12-23T08:15:14.055Z,42.58
2022-12-23T08:16:14.039Z,42.45
2022-12-23T08:17:14.055Z,42.37
2022-12-23T08:18:13.973Z,42.19
2022-12-23T08:19:14.026Z,42.24
2022-12-23T08:20:13.980Z,42.11
2022-12-23T08:21:13.998Z,42.19
2022-12-23T08:22:13.956Z,41.98
2022-12-23T08:23:13.947Z,42.02
2022-12-23T08:24:13.990Z,42.24
2022-12-23T08:25:13.932Z,42.24
2022-12-23T08:26:13.946Z,42.24
2022-12-23T08:27:13.975Z,42.19
2022-12-23T08:28:13.950Z,42.19
2022-12-23T08:29:13.905Z,42.02
2022-12-23T08:30:13.855Z,42.07
2022-12-23T08:31:14.016Z,41.98
2022-12-23T08:32:13.892Z,41.69
2022-12-23T08:33:14.214Z,41.44
2022-12-23T08:34:13.839Z,41.19
2022-12-23T08:35:13.959Z,41.07
2022-12-23T08:36:17.595Z,40.99
2022-12-23T08:37:13.854Z,41.07
2022-12-23T08:38:13.778Z,40.95
2022-12-23T08:39:13.818Z,40.59
2022-12-23T08:40:13.838Z,40.71
2022-12-23T08:41:13.788Z,40.47
2022-12-23T08:42:13.749Z,40.39
2022-12-23T08:43:13.810Z,40.59
2022-12-23T08:44:13.740Z,40.24
2022-12-23T08:45:13.767Z,39.77
2022-12-23T08:46:13.803Z,39.85
2022-12-23T08:47:13.700Z,39.74
2022-12-23T08:48:13.716Z,39.70
2022-12-23T08:49:13.678Z,39.36
2022-12-23T08:50:13.704Z,39.58
2022-12-23T08:51:13.649Z,39.66
2022-12-23T08:52:13.674Z,39.85
2022-12-23T08:53:13.642Z,39.58
2022-12-23T08:54:13.613Z,39.89
2022-12-23T08:55:13.663Z,39.93
2022-12-23T08:56:13.619Z,40.12
2022-12-23T08:57:13.793Z,40.08
2022-12-23T08:58:13.592Z,40.20
2022-12-23T08:59:18.730Z,40.51
2022-12-23T09:00:13.590Z,40.51
2022-12-23T09:01:13.610Z,40.63
2022-12-23T09:02:13.721Z,40.75
2022-12-23T09:03:13.682Z,40.83
2022-12-23T09:04:13.515Z,40.95
2022-12-23T09:05:13.504Z,41.11
2022-12-23T09:06:13.493Z,40.79
2022-12-23T09:07:13.486Z,40.87
2022-12-23T09:08:13.499Z,40.91
2022-12-23T09:09:13.471Z,41.15
2022-12-23T09:10:13.522Z,41.07
2022-12-23T09:11:13.459Z,41.15
2022-12-23T09:12:13.479Z,41.27
2022-12-23T09:13:19.983Z,41.48
2022-12-23T09:14:13.436Z,41.27
2022-12-23T09:15:13.419Z,41.35
2022-12-23T09:16:13.476Z,41.31
2022-12-23T09:17:13.399Z,41.07
2022-12-23T09:18:13.414Z,41.19
2022-12-23T09:19:13.363Z,41.19
2022-12-23T09:20:13.376Z,41.23
2022-12-23T09:21:13.358Z,41.15
2022-12-23T09:22:13.395Z,41.19
2022-12-23T09:23:13.326Z,41.03
2022-12-23T09:24:13.325Z,40.83
2022-12-23T09:25:13.366Z,40.95
2022-12-23T09:26:13.329Z,40.79
2022-12-23T09:27:13.360Z,40.95
2022-12-23T09:28:13.277Z,40.87
2022-12-23T09:29:13.304Z,40.79
2022-12-23T09:30:13.292Z,40.91
2022-12-23T09:31:13.573Z,40.67
2022-12-23T09:32:13.273Z,40.75
2022-12-23T09:33:13.309Z,40.63
2022-12-23T09:34:13.214Z,40.39
2022-12-23T09:35:13.215Z,40.20
2022-12-23T09:36:14.092Z,40.16
2022-12-23T09:37:13.186Z,40.08
2022-12-23T09:38:13.197Z,40.24
2022-12-23T09:39:13.176Z,40.35
2022-12-23T09:40:13.175Z,40.08
2022-12-23T09:41:13.157Z,40.08
2022-12-23T09:42:13.169Z,40.20
2022-12-23T09:43:13.151Z,40.16
2022-12-23T09:44:13.136Z,40.12
2022-12-23T09:45:13.155Z,40.20
2022-12-23T09:46:13.293Z,40.16
2022-12-23T09:47:13.110Z,40.20
2022-12-23T09:48:13.097Z,40.35
2022-12-23T09:49:13.095Z,40.08
2022-12-23T09:50:13.080Z,39.97
2022-12-23T09:51:13.099Z,39.89
2022-12-23T09:52:13.099Z,39.89
2022-12-23T09:53:13.071Z,40.00
2022-12-23T09:54:16.888Z,39.97
2022-12-23T09:55:13.036Z,39.89
2022-12-23T09:56:13.028Z,39.81
2022-12-23T09:57:13.017Z,39.97
2022-12-23T09:58:13.020Z,39.77
2022-12-23T09:59:12.997Z,39.77
2022-12-23T10:00:12.982Z,39.55
2022-12-23T10:01:12.962Z,39.32
2022-12-23T10:02:13.033Z,39.36
2022-12-23T10:03:13.265Z,39.40
2022-12-23T10:04:12.978Z,39.55
2022-12-23T10:05:12.999Z,39.51
2022-12-23T10:06:12.984Z,39.74
2022-12-23T10:07:12.973Z,39.74
2022-12-23T10:08:12.932Z,39.70
2022-12-23T10:09:12.958Z,39.47
2022-12-23T10:10:12.867Z,39.25
2022-12-23T10:11:12.874Z,39.36
2022-12-23T10:12:12.862Z,39.36
2022-12-23T10:13:12.852Z,39.32
2022-12-23T10:14:12.825Z,39.40
2022-12-23T10:15:12.812Z,39.51
2022-12-23T10:16:13.890Z,39.36
2022-12-23T10:17:12.960Z,39.40
2022-12-23T10:18:12.824Z,39.62
2022-12-23T10:19:12.788Z,39.70
2022-12-23T10:20:12.775Z,39.74
2022-12-23T10:21:12.798Z,39.51
2022-12-23T10:22:12.789Z,39.66
2022-12-23T10:23:12.736Z,39.81
2022-12-23T10:24:12.794Z,39.93
2022-12-23T10:25:12.755Z,40.43
2022-12-23T10:26:12.731Z,40.47
2022-12-23T10:27:12.738Z,40.39
2022-12-23T10:28:12.739Z,41.11
2022-12-23T10:29:18.383Z,40.63
2022-12-23T10:30:42.028Z,40.63
2022-12-23T10:31:41.893Z,40.87
2022-12-23T10:32:12.695Z,40.75
2022-12-23T10:33:12.720Z,40.75
2022-12-23T10:34:12.629Z,40.87
2022-12-23T10:35:12.636Z,40.51
2022-12-23T10:36:12.734Z,40.28
2022-12-23T10:37:12.678Z,40.55
2022-12-23T10:38:12.681Z,40.63
2022-12-23T10:39:12.568Z,41.23
2022-12-23T10:40:12.615Z,40.71
2022-12-23T10:41:12.602Z,41.44
2022-12-23T10:42:12.624Z,41.69
2022-12-23T10:43:12.532Z,41.27
2022-12-23T10:44:12.561Z,40.87
2022-12-23T10:45:12.512Z,40.83
2022-12-23T10:46:12.575Z,41.03
2022-12-23T10:47:12.660Z,41.15
2022-12-23T10:48:14.423Z,41.27
2022-12-23T10:49:12.484Z,41.65
2022-12-23T10:50:12.474Z,41.77
2022-12-23T10:51:12.482Z,41.52
2022-12-23T10:52:12.452Z,41.98
2022-12-23T10:53:12.456Z,42.32
2022-12-23T10:54:12.445Z,42.28
2022-12-23T10:55:12.428Z,41.85
2022-12-23T10:56:12.412Z,42.32
2022-12-23T10:57:12.431Z,42.63
2022-12-23T10:58:12.385Z,42.15
2022-12-23T10:59:12.425Z,42.02
2022-12-23T11:00:12.443Z,42.58
2022-12-23T11:01:18.873Z,42.76
2022-12-23T11:02:12.588Z,42.32
2022-12-23T11:03:12.440Z,42.76
2022-12-23T11:04:12.352Z,42.80
2022-12-23T11:05:12.318Z,42.98
2022-12-23T11:06:12.332Z,42.94
2022-12-23T11:07:42.773Z,42.89
2022-12-23T11:08:12.350Z,42.76
2022-12-23T11:09:12.298Z,42.85
2022-12-23T11:10:12.297Z,42.98
2022-12-23T11:11:12.301Z,43.07
2022-12-23T11:12:12.266Z,43.02
2022-12-23T11:13:12.234Z,42.85
2022-12-23T11:14:12.350Z,42.98
2022-12-23T11:15:12.331Z,42.76
2022-12-23T11:16:12.304Z,42.80
2022-12-23T11:17:12.204Z,42.63
2022-12-23T11:18:12.246Z,42.54
2022-12-23T11:19:12.202Z,42.11
2022-12-23T11:20:12.247Z,42.07
2022-12-23T11:21:12.163Z,42.07
2022-12-23T11:22:12.245Z,42.50
2022-12-23T11:23:12.180Z,42.54
2022-12-23T11:24:12.127Z,42.07
2022-12-23T11:25:12.145Z,42.45
2022-12-23T11:26:12.135Z,42.07
2022-12-23T11:27:12.113Z,42.24
2022-12-23T11:28:12.117Z,41.73
2022-12-23T11:29:12.124Z,41.81
2022-12-23T11:30:12.088Z,41.56
2022-12-23T11:31:12.460Z,41.56
2022-12-23T11:32:12.078Z,41.48
2022-12-23T11:33:12.042Z,41.73
2022-12-23T11:34:12.056Z,41.60
2022-12-23T11:35:12.026Z,41.44
2022-12-23T11:36:12.343Z,41.27
2022-12-23T11:37:12.025Z,40.91
2022-12-23T11:38:12.032Z,41.15
2022-12-23T11:39:11.986Z,40.99
2022-12-23T11:40:11.971Z,40.83
2022-12-23T11:41:12.008Z,40.51
2022-12-23T11:42:11.978Z,40.71
2022-12-23T11:43:12.075Z,40.59
2022-12-23T11:44:11.964Z,40.08
2022-12-23T11:45:11.955Z,39.93
2022-12-23T11:46:11.999Z,40.12
2022-12-23T11:47:11.929Z,39.93
2022-12-23T11:48:11.954Z,40.20
2022-12-23T11:49:11.910Z,40.16
2022-12-23T11:50:11.908Z,40.43
2022-12-23T11:51:11.867Z,40.24
2022-12-23T11:52:11.885Z,40.12
2022-12-23T11:53:11.851Z,39.89
2022-12-23T11:54:11.933Z,39.97
2022-12-23T11:55:11.831Z,40.08
2022-12-23T11:56:11.806Z,39.77
2022-12-23T11:57:11.924Z,39.74
2022-12-23T11:58:11.807Z,39.44
2022-12-23T11:59:11.788Z,39.25
2022-12-23T12:00:11.973Z,39.14
2022-12-23T12:01:11.805Z,39.10
2022-12-23T12:02:11.842Z,38.99
2022-12-23T12:03:11.799Z,38.88
2022-12-23T12:04:11.748Z,39.14
2022-12-23T12:05:11.723Z,39.17
2022-12-23T12:06:11.713Z,39.06
2022-12-23T12:07:11.741Z,39.32
2022-12-23T12:08:11.711Z,39.47
2022-12-23T12:09:11.694Z,39.58
2022-12-23T12:10:11.749Z,39.66
2022-12-23T12:11:11.658Z,39.62
2022-12-23T12:12:11.675Z,39.47
2022-12-23T12:13:11.683Z,39.32
2022-12-23T12:14:11.728Z,39.25
2022-12-23T12:15:11.659Z,39.36
2022-12-23T12:16:11.706Z,39.55
2022-12-23T12:17:11.648Z,39.62
2022-12-23T12:18:11.586Z,39.51
2022-12-23T12:19:11.628Z,39.44
2022-12-23T12:20:11.588Z,39.55
2022-12-23T12:21:11.572Z,39.77
2022-12-23T12:22:11.548Z,39.74
2022-12-23T12:23:11.554Z,39.55
2022-12-23T12:24:19.781Z,39.70
2022-12-23T12:25:11.536Z,39.40
2022-12-23T12:26:11.525Z,39.25
2022-12-23T12:27:11.540Z,39.25
2022-12-23T12:28:11.540Z,39.40
2022-12-23T12:29:11.572Z,39.17
2022-12-23T12:30:11.478Z,39.10
2022-12-23T12:31:11.585Z,38.96
2022-12-23T12:32:11.562Z,38.99
2022-12-23T12:33:11.430Z,39.06
2022-12-23T12:34:11.434Z,39.06
2022-12-23T12:35:11.431Z,39.17
2022-12-23T12:36:11.419Z,39.17
2022-12-23T12:37:11.478Z,39.17
2022-12-23T12:38:11.390Z,39.14
2022-12-23T12:39:11.422Z,39.25
2022-12-23T12:40:11.383Z,38.81
2022-12-23T12:41:11.388Z,39.29
2022-12-23T12:42:11.358Z,39.25
2022-12-23T12:43:11.354Z,39.32
2022-12-23T12:44:11.348Z,39.47
2022-12-23T12:45:11.320Z,39.58
2022-12-23T12:46:11.405Z,39.55
2022-12-23T12:47:36.098Z,39.62
2022-12-23T12:48:18.215Z,39.77
2022-12-23T12:49:11.297Z,39.77
2022-12-23T12:50:11.296Z,39.74
2022-12-23T12:51:11.245Z,39.55
2022-12-23T12:52:11.243Z,39.32